sensor_id;sensor_type;location;lat;lon;timestamp;P1;durP1;ratioP1;P2;durP2;ratioP2
62633;SDS011;48704;50.534;6.442;2023-02-22T00:00:27;5.78;;;2.83;;
62633;SDS011;48704;50.534;6.442;2023-02-22T00:05:49;6.20;;;2.80;;
62633;SDS011;48704;50.534;6.442;2023-02-22T00:08:18;6.32;;;2.85;;
62633;SDS011;48704;50.534;6.442;2023-02-22T00:10:45;6.20;;;2.80;;
62633;SDS011;48704;50.534;6.442;2023-02-22T00:13:15;6.50;;;2.80;;
62633;SDS011;48704;50.534;6.442;2023-02-22T00:15:41;5.85;;;3.35;;
62633;SDS011;48704;50.534;6.442;2023-02-22T00:18:07;5.80;;;3.15;;
62633;SDS011;48704;50.534;6.442;2023-02-22T00:20:36;8.50;;;3.20;;
62633;SDS011;48704;50.534;6.442;2023-02-22T00:23:04;8.02;;;3.40;;
62633;SDS011;48704;50.534;6.442;2023-02-22T00:25:32;7.20;;;3.22;;
62633;SDS011;48704;50.534;6.442;2023-02-22T00:27:58;7.07;;;3.08;;
62633;SDS011;48704;50.534;6.442;2023-02-22T00:30:24;5.68;;;2.70;;
62633;SDS011;48704;50.534;6.442;2023-02-22T00:32:51;7.03;;;2.90;;
62633;SDS011;48704;50.534;6.442;2023-02-22T00:35:20;7.13;;;2.83;;
62633;SDS011;48704;50.534;6.442;2023-02-22T00:37:48;7.47;;;3.10;;
62633;SDS011;48704;50.534;6.442;2023-02-22T00:40:19;6.53;;;3.13;;
62633;SDS011;48704;50.534;6.442;2023-02-22T00:42:47;6.03;;;2.83;;
62633;SDS011;48704;50.534;6.442;2023-02-22T00:45:15;4.70;;;2.30;;
62633;SDS011;48704;50.534;6.442;2023-02-22T00:47:42;6.25;;;2.28;;
62633;SDS011;48704;50.534;6.442;2023-02-22T00:50:07;4.80;;;2.15;;
62633;SDS011;48704;50.534;6.442;2023-02-22T00:52:34;5.93;;;2.42;;
62633;SDS011;48704;50.534;6.442;2023-02-22T00:55:00;6.35;;;2.42;;
62633;SDS011;48704;50.534;6.442;2023-02-22T00:57:26;6.57;;;2.15;;
62633;SDS011;48704;50.534;6.442;2023-02-22T00:59:51;5.35;;;1.90;;
62633;SDS011;48704;50.534;6.442;2023-02-22T01:02:17;4.28;;;1.70;;
62633;SDS011;48704;50.534;6.442;2023-02-22T01:04:42;4.57;;;1.90;;
62633;SDS011;48704;50.534;6.442;2023-02-22T01:07:07;3.47;;;1.80;;
62633;SDS011;48704;50.534;6.442;2023-02-22T01:09:33;5.40;;;2.55;;
62633;SDS011;48704;50.534;6.442;2023-02-22T01:11:59;5.25;;;2.50;;
62633;SDS011;48704;50.534;6.442;2023-02-22T01:14:25;3.70;;;1.73;;
62633;SDS011;48704;50.534;6.442;2023-02-22T01:16:52;5.82;;;2.03;;
62633;SDS011;48704;50.534;6.442;2023-02-22T01:19:18;5.28;;;1.80;;
62633;SDS011;48704;50.534;6.442;2023-02-22T01:21:44;5.60;;;2.03;;
62633;SDS011;48704;50.534;6.442;2023-02-22T01:24:11;3.83;;;1.90;;
62633;SDS011;48704;50.534;6.442;2023-02-22T01:26:40;3.92;;;1.77;;
62633;SDS011;48704;50.534;6.442;2023-02-22T01:29:13;4.45;;;1.73;;
62633;SDS011;48704;50.534;6.442;2023-02-22T01:31:40;3.67;;;1.80;;
62633;SDS011;48704;50.534;6.442;2023-02-22T01:34:08;3.92;;;1.92;;
62633;SDS011;48704;50.534;6.442;2023-02-22T01:36:34;6.72;;;1.90;;
62633;SDS011;48704;50.534;6.442;2023-02-22T01:39:00;3.40;;;1.58;;
62633;SDS011;48704;50.534;6.442;2023-02-22T01:41:25;4.00;;;1.67;;
62633;SDS011;48704;50.534;6.442;2023-02-22T01:43:50;3.80;;;1.70;;
62633;SDS011;48704;50.534;6.442;2023-02-22T01:46:20;3.63;;;1.77;;
62633;SDS011;48704;50.534;6.442;2023-02-22T01:48:58;4.70;;;1.80;;
62633;SDS011;48704;50.534;6.442;2023-02-22T01:51:30;3.63;;;1.60;;
62633;SDS011;48704;50.534;6.442;2023-02-22T01:54:14;5.20;;;1.70;;
62633;SDS011;48704;50.534;6.442;2023-02-22T01:59:47;3.60;;;1.63;;
62633;SDS011;48704;50.534;6.442;2023-02-22T02:02:16;5.50;;;1.83;;
62633;SDS011;48704;50.534;6.442;2023-02-22T02:04:44;3.55;;;1.70;;
62633;SDS011;48704;50.534;6.442;2023-02-22T02:07:10;3.53;;;1.92;;
62633;SDS011;48704;50.534;6.442;2023-02-22T02:09:59;6.13;;;1.65;;
62633;SDS011;48704;50.534;6.442;2023-02-22T02:12:29;3.88;;;2.00;;
62633;SDS011;48704;50.534;6.442;2023-02-22T02:17:56;3.35;;;1.52;;
62633;SDS011;48704;50.534;6.442;2023-02-22T02:25:56;4.97;;;2.10;;
62633;SDS011;48704;50.534;6.442;2023-02-22T02:36:49;4.15;;;2.10;;
62633;SDS011;48704;50.534;6.442;2023-02-22T02:39:26;4.20;;;1.83;;
62633;SDS011;48704;50.534;6.442;2023-02-22T02:41:56;4.28;;;2.00;;
62633;SDS011;48704;50.534;6.442;2023-02-22T02:44:26;5.80;;;2.13;;
62633;SDS011;48704;50.534;6.442;2023-02-22T02:46:59;5.30;;;2.10;;
62633;SDS011;48704;50.534;6.442;2023-02-22T02:49:40;5.18;;;2.55;;
62633;SDS011;48704;50.534;6.442;2023-02-22T02:52:11;5.70;;;2.75;;
62633;SDS011;48704;50.534;6.442;2023-02-22T02:54:38;4.80;;;2.30;;
62633;SDS011;48704;50.534;6.442;2023-02-22T02:57:05;6.05;;;2.50;;
62633;SDS011;48704;50.534;6.442;2023-02-22T03:07:24;9.18;;;3.45;;
62633;SDS011;48704;50.534;6.442;2023-02-22T03:13:01;12.23;;;3.67;;
62633;SDS011;48704;50.534;6.442;2023-02-22T03:18:12;10.95;;;3.70;;
62633;SDS011;48704;50.534;6.442;2023-02-22T03:23:32;10.65;;;4.25;;
62633;SDS011;48704;50.534;6.442;2023-02-22T03:26:03;10.20;;;4.65;;
62633;SDS011;48704;50.534;6.442;2023-02-22T03:28:33;13.88;;;5.00;;
62633;SDS011;48704;50.534;6.442;2023-02-22T03:31:06;13.90;;;5.85;;
62633;SDS011;48704;50.534;6.442;2023-02-22T03:33:36;12.60;;;5.75;;
62633;SDS011;48704;50.534;6.442;2023-02-22T03:36:08;12.25;;;5.38;;
62633;SDS011;48704;50.534;6.442;2023-02-22T03:38:38;12.60;;;5.35;;
62633;SDS011;48704;50.534;6.442;2023-02-22T03:41:06;14.00;;;5.32;;
62633;SDS011;48704;50.534;6.442;2023-02-22T03:43:38;13.98;;;5.30;;
62633;SDS011;48704;50.534;6.442;2023-02-22T03:46:06;11.03;;;5.67;;
62633;SDS011;48704;50.534;6.442;2023-02-22T03:48:36;14.18;;;5.95;;
62633;SDS011;48704;50.534;6.442;2023-02-22T03:51:08;12.00;;;5.18;;
62633;SDS011;48704;50.534;6.442;2023-02-22T03:53:35;15.38;;;6.30;;
62633;SDS011;48704;50.534;6.442;2023-02-22T03:56:01;14.35;;;6.13;;
62633;SDS011;48704;50.534;6.442;2023-02-22T03:58:31;13.63;;;5.90;;
62633;SDS011;48704;50.534;6.442;2023-02-22T04:00:59;17.98;;;6.43;;
62633;SDS011;48704;50.534;6.442;2023-02-22T04:03:24;15.40;;;6.15;;
62633;SDS011;48704;50.534;6.442;2023-02-22T04:05:49;15.18;;;5.90;;
62633;SDS011;48704;50.534;6.442;2023-02-22T04:08:15;11.57;;;5.55;;
62633;SDS011;48704;50.534;6.442;2023-02-22T04:10:41;15.55;;;7.30;;
62633;SDS011;48704;50.534;6.442;2023-02-22T04:13:06;21.42;;;6.75;;
62633;SDS011;48704;50.534;6.442;2023-02-22T04:15:31;15.75;;;6.85;;
62633;SDS011;48704;50.534;6.442;2023-02-22T04:17:57;14.98;;;6.95;;
62633;SDS011;48704;50.534;6.442;2023-02-22T04:20:22;14.82;;;6.28;;
62633;SDS011;48704;50.534;6.442;2023-02-22T04:22:49;11.85;;;5.43;;
62633;SDS011;48704;50.534;6.442;2023-02-22T04:25:19;12.80;;;5.68;;
62633;SDS011;48704;50.534;6.442;2023-02-22T04:27:45;18.30;;;6.18;;
62633;SDS011;48704;50.534;6.442;2023-02-22T04:30:11;17.20;;;6.53;;
62633;SDS011;48704;50.534;6.442;2023-02-22T04:32:37;15.02;;;6.00;;
62633;SDS011;48704;50.534;6.442;2023-02-22T04:35:03;19.08;;;7.20;;
62633;SDS011;48704;50.534;6.442;2023-02-22T04:37:29;13.13;;;6.43;;
62633;SDS011;48704;50.534;6.442;2023-02-22T04:39:55;19.75;;;6.53;;
62633;SDS011;48704;50.534;6.442;2023-02-22T04:42:20;16.80;;;6.68;;
62633;SDS011;48704;50.534;6.442;2023-02-22T04:44:45;14.90;;;6.40;;
62633;SDS011;48704;50.534;6.442;2023-02-22T04:47:10;18.08;;;7.30;;
62633;SDS011;48704;50.534;6.442;2023-02-22T04:49:36;17.20;;;6.47;;
62633;SDS011;48704;50.534;6.442;2023-02-22T04:52:01;14.55;;;6.30;;
62633;SDS011;48704;50.534;6.442;2023-02-22T04:54:26;16.25;;;6.25;;
62633;SDS011;48704;50.534;6.442;2023-02-22T04:56:51;17.63;;;6.63;;
62633;SDS011;48704;50.534;6.442;2023-02-22T04:59:17;15.45;;;7.13;;
62633;SDS011;48704;50.534;6.442;2023-02-22T05:01:43;16.92;;;6.93;;
62633;SDS011;48704;50.534;6.442;2023-02-22T05:04:09;14.00;;;5.90;;
62633;SDS011;48704;50.534;6.442;2023-02-22T05:06:34;14.88;;;6.90;;
62633;SDS011;48704;50.534;6.442;2023-02-22T05:09:00;15.60;;;6.53;;
62633;SDS011;48704;50.534;6.442;2023-02-22T05:11:25;16.55;;;6.45;;
62633;SDS011;48704;50.534;6.442;2023-02-22T05:13:50;18.08;;;7.15;;
62633;SDS011;48704;50.534;6.442;2023-02-22T05:16:15;18.50;;;7.00;;
62633;SDS011;48704;50.534;6.442;2023-02-22T05:18:41;12.00;;;6.25;;
62633;SDS011;48704;50.534;6.442;2023-02-22T05:21:06;14.38;;;6.68;;
62633;SDS011;48704;50.534;6.442;2023-02-22T05:23:32;14.05;;;6.40;;
62633;SDS011;48704;50.534;6.442;2023-02-22T05:25:58;16.92;;;6.70;;
62633;SDS011;48704;50.534;6.442;2023-02-22T05:28:23;16.92;;;7.13;;
62633;SDS011;48704;50.534;6.442;2023-02-22T05:30:49;14.98;;;6.45;;
62633;SDS011;48704;50.534;6.442;2023-02-22T05:33:14;13.50;;;6.03;;
62633;SDS011;48704;50.534;6.442;2023-02-22T05:35:39;13.38;;;6.70;;
62633;SDS011;48704;50.534;6.442;2023-02-22T05:38:05;16.38;;;6.45;;
62633;SDS011;48704;50.534;6.442;2023-02-22T05:40:30;17.50;;;6.63;;
62633;SDS011;48704;50.534;6.442;2023-02-22T05:42:57;14.57;;;6.03;;
62633;SDS011;48704;50.534;6.442;2023-02-22T05:45:23;14.95;;;6.40;;
62633;SDS011;48704;50.534;6.442;2023-02-22T05:47:51;16.95;;;6.47;;
62633;SDS011;48704;50.534;6.442;2023-02-22T05:50:17;13.35;;;6.28;;
62633;SDS011;48704;50.534;6.442;2023-02-22T05:52:43;15.95;;;6.57;;
62633;SDS011;48704;50.534;6.442;2023-02-22T05:55:10;17.00;;;7.03;;
62633;SDS011;48704;50.534;6.442;2023-02-22T05:57:37;16.33;;;5.97;;
62633;SDS011;48704;50.534;6.442;2023-02-22T06:00:03;18.05;;;6.88;;
62633;SDS011;48704;50.534;6.442;2023-02-22T06:02:31;13.13;;;5.50;;
62633;SDS011;48704;50.534;6.442;2023-02-22T06:04:56;16.05;;;6.15;;
62633;SDS011;48704;50.534;6.442;2023-02-22T06:07:21;14.88;;;5.78;;
62633;SDS011;48704;50.534;6.442;2023-02-22T06:09:47;11.60;;;5.55;;
62633;SDS011;48704;50.534;6.442;2023-02-22T06:12:12;16.15;;;6.05;;
62633;SDS011;48704;50.534;6.442;2023-02-22T06:14:37;13.77;;;5.72;;
62633;SDS011;48704;50.534;6.442;2023-02-22T06:17:04;12.70;;;5.10;;
62633;SDS011;48704;50.534;6.442;2023-02-22T06:19:30;9.98;;;4.60;;
62633;SDS011;48704;50.534;6.442;2023-02-22T06:21:56;14.27;;;5.35;;
62633;SDS011;48704;50.534;6.442;2023-02-22T06:24:24;10.20;;;4.97;;
62633;SDS011;48704;50.534;6.442;2023-02-22T06:26:56;15.07;;;5.82;;
62633;SDS011;48704;50.534;6.442;2023-02-22T06:29:24;16.67;;;6.80;;
62633;SDS011;48704;50.534;6.442;2023-02-22T06:31:50;22.25;;;8.55;;
62633;SDS011;48704;50.534;6.442;2023-02-22T06:34:15;14.82;;;6.63;;
62633;SDS011;48704;50.534;6.442;2023-02-22T06:36:41;11.40;;;5.53;;
62633;SDS011;48704;50.534;6.442;2023-02-22T06:39:07;14.73;;;6.60;;
62633;SDS011;48704;50.534;6.442;2023-02-22T06:41:36;13.50;;;5.10;;
62633;SDS011;48704;50.534;6.442;2023-02-22T06:44:02;13.63;;;5.40;;
62633;SDS011;48704;50.534;6.442;2023-02-22T06:46:27;10.88;;;5.28;;
62633;SDS011;48704;50.534;6.442;2023-02-22T06:48:52;12.00;;;5.47;;
62633;SDS011;48704;50.534;6.442;2023-02-22T06:51:17;11.32;;;5.60;;
62633;SDS011;48704;50.534;6.442;2023-02-22T06:53:43;9.60;;;4.45;;
62633;SDS011;48704;50.534;6.442;2023-02-22T06:56:08;14.75;;;5.13;;
62633;SDS011;48704;50.534;6.442;2023-02-22T06:58:34;9.80;;;4.55;;
62633;SDS011;48704;50.534;6.442;2023-02-22T07:00:59;12.48;;;5.07;;
62633;SDS011;48704;50.534;6.442;2023-02-22T07:03:26;12.15;;;5.03;;
62633;SDS011;48704;50.534;6.442;2023-02-22T07:05:51;15.55;;;6.25;;
62633;SDS011;48704;50.534;6.442;2023-02-22T07:08:17;11.15;;;5.53;;
62633;SDS011;48704;50.534;6.442;2023-02-22T07:10:42;12.60;;;5.30;;
62633;SDS011;48704;50.534;6.442;2023-02-22T07:13:07;10.68;;;4.65;;
62633;SDS011;48704;50.534;6.442;2023-02-22T07:15:33;11.85;;;5.10;;
62633;SDS011;48704;50.534;6.442;2023-02-22T07:17:59;9.02;;;4.15;;
62633;SDS011;48704;50.534;6.442;2023-02-22T07:20:25;10.10;;;4.93;;
62633;SDS011;48704;50.534;6.442;2023-02-22T07:22:52;10.98;;;4.90;;
62633;SDS011;48704;50.534;6.442;2023-02-22T07:25:18;8.82;;;4.28;;
62633;SDS011;48704;50.534;6.442;2023-02-22T07:27:44;9.18;;;3.92;;
62633;SDS011;48704;50.534;6.442;2023-02-22T07:30:14;10.23;;;4.22;;
62633;SDS011;48704;50.534;6.442;2023-02-22T07:32:43;10.23;;;4.15;;
62633;SDS011;48704;50.534;6.442;2023-02-22T07:35:13;10.20;;;4.13;;
62633;SDS011;48704;50.534;6.442;2023-02-22T07:37:42;10.63;;;4.63;;
62633;SDS011;48704;50.534;6.442;2023-02-22T07:40:08;11.75;;;4.30;;
62633;SDS011;48704;50.534;6.442;2023-02-22T07:42:48;8.55;;;4.40;;
62633;SDS011;48704;50.534;6.442;2023-02-22T07:45:25;17.52;;;4.93;;
62633;SDS011;48704;50.534;6.442;2023-02-22T07:47:52;8.50;;;4.00;;
62633;SDS011;48704;50.534;6.442;2023-02-22T07:50:18;9.52;;;4.43;;
62633;SDS011;48704;50.534;6.442;2023-02-22T07:52:48;8.60;;;3.85;;
62633;SDS011;48704;50.534;6.442;2023-02-22T07:55:15;8.40;;;4.03;;
62633;SDS011;48704;50.534;6.442;2023-02-22T07:57:47;8.73;;;4.05;;
62633;SDS011;48704;50.534;6.442;2023-02-22T08:00:14;8.20;;;3.55;;
62633;SDS011;48704;50.534;6.442;2023-02-22T08:02:45;8.55;;;3.47;;
62633;SDS011;48704;50.534;6.442;2023-02-22T08:05:10;6.65;;;3.13;;
62633;SDS011;48704;50.534;6.442;2023-02-22T08:07:36;6.40;;;3.45;;
62633;SDS011;48704;50.534;6.442;2023-02-22T08:10:03;8.55;;;3.45;;
62633;SDS011;48704;50.534;6.442;2023-02-22T08:12:31;7.70;;;3.28;;
62633;SDS011;48704;50.534;6.442;2023-02-22T08:14:56;8.02;;;3.30;;
62633;SDS011;48704;50.534;6.442;2023-02-22T08:17:22;9.32;;;3.35;;
62633;SDS011;48704;50.534;6.442;2023-02-22T08:19:47;8.40;;;3.40;;
62633;SDS011;48704;50.534;6.442;2023-02-22T08:22:12;8.77;;;3.35;;
62633;SDS011;48704;50.534;6.442;2023-02-22T08:24:37;7.28;;;3.30;;
62633;SDS011;48704;50.534;6.442;2023-02-22T08:27:03;9.02;;;3.58;;
62633;SDS011;48704;50.534;6.442;2023-02-22T08:29:28;25.13;;;5.85;;
62633;SDS011;48704;50.534;6.442;2023-02-22T08:31:57;34.83;;;7.10;;
62633;SDS011;48704;50.534;6.442;2023-02-22T08:34:26;10.25;;;3.45;;
62633;SDS011;48704;50.534;6.442;2023-02-22T08:36:51;9.73;;;3.83;;
62633;SDS011;48704;50.534;6.442;2023-02-22T08:39:17;6.70;;;3.28;;
62633;SDS011;48704;50.534;6.442;2023-02-22T08:41:42;10.18;;;3.50;;
62633;SDS011;48704;50.534;6.442;2023-02-22T08:44:07;7.05;;;3.00;;
62633;SDS011;48704;50.534;6.442;2023-02-22T08:46:33;29.70;;;5.85;;
62633;SDS011;48704;50.534;6.442;2023-02-22T08:48:58;18.25;;;4.10;;
62633;SDS011;48704;50.534;6.442;2023-02-22T08:51:23;21.83;;;5.15;;
62633;SDS011;48704;50.534;6.442;2023-02-22T08:53:49;29.90;;;5.30;;
62633;SDS011;48704;50.534;6.442;2023-02-22T08:56:15;12.20;;;3.50;;
62633;SDS011;48704;50.534;6.442;2023-02-22T08:58:40;8.15;;;3.00;;
62633;SDS011;48704;50.534;6.442;2023-02-22T09:01:05;5.75;;;2.85;;
62633;SDS011;48704;50.534;6.442;2023-02-22T09:03:30;8.63;;;3.53;;
62633;SDS011;48704;50.534;6.442;2023-02-22T09:05:56;10.93;;;4.03;;
62633;SDS011;48704;50.534;6.442;2023-02-22T09:08:23;7.68;;;3.53;;
62633;SDS011;48704;50.534;6.442;2023-02-22T09:10:50;11.68;;;4.22;;
62633;SDS011;48704;50.534;6.442;2023-02-22T09:13:16;9.40;;;4.32;;
62633;SDS011;48704;50.534;6.442;2023-02-22T09:15:41;10.32;;;5.47;;
62633;SDS011;48704;50.534;6.442;2023-02-22T09:18:08;9.93;;;4.93;;
62633;SDS011;48704;50.534;6.442;2023-02-22T09:20:35;11.23;;;5.20;;
62633;SDS011;48704;50.534;6.442;2023-02-22T09:23:01;11.45;;;5.40;;
62633;SDS011;48704;50.534;6.442;2023-02-22T09:25:27;12.15;;;6.13;;
62633;SDS011;48704;50.534;6.442;2023-02-22T09:27:53;14.00;;;6.57;;
62633;SDS011;48704;50.534;6.442;2023-02-22T09:32:47;12.07;;;5.70;;
62633;SDS011;48704;50.534;6.442;2023-02-22T09:35:13;12.75;;;5.70;;
62633;SDS011;48704;50.534;6.442;2023-02-22T09:37:39;12.48;;;5.85;;
62633;SDS011;48704;50.534;6.442;2023-02-22T09:40:04;11.68;;;6.68;;
62633;SDS011;48704;50.534;6.442;2023-02-22T09:42:34;12.48;;;6.75;;
62633;SDS011;48704;50.534;6.442;2023-02-22T09:47:52;11.15;;;5.80;;
62633;SDS011;48704;50.534;6.442;2023-02-22T09:50:25;11.75;;;6.45;;
62633;SDS011;48704;50.534;6.442;2023-02-22T09:53:05;11.52;;;5.65;;
62633;SDS011;48704;50.534;6.442;2023-02-22T09:55:42;16.02;;;7.88;;
62633;SDS011;48704;50.534;6.442;2023-02-22T09:58:23;14.43;;;7.25;;
62633;SDS011;48704;50.534;6.442;2023-02-22T10:00:56;10.50;;;5.88;;
62633;SDS011;48704;50.534;6.442;2023-02-22T10:03:46;10.40;;;5.68;;
62633;SDS011;48704;50.534;6.442;2023-02-22T10:06:21;11.40;;;5.00;;
62633;SDS011;48704;50.534;6.442;2023-02-22T10:08:49;10.13;;;5.60;;
62633;SDS011;48704;50.534;6.442;2023-02-22T10:14:20;11.88;;;5.60;;
62633;SDS011;48704;50.534;6.442;2023-02-22T10:17:12;12.75;;;6.25;;
62633;SDS011;48704;50.534;6.442;2023-02-22T10:25:34;9.80;;;5.30;;
62633;SDS011;48704;50.534;6.442;2023-02-22T10:30:37;15.60;;;5.47;;
62633;SDS011;48704;50.534;6.442;2023-02-22T10:33:17;10.95;;;5.95;;
62633;SDS011;48704;50.534;6.442;2023-02-22T10:35:46;9.52;;;5.70;;
62633;SDS011;48704;50.534;6.442;2023-02-22T10:38:46;9.82;;;4.97;;
62633;SDS011;48704;50.534;6.442;2023-02-22T10:43:40;11.98;;;5.10;;
62633;SDS011;48704;50.534;6.442;2023-02-22T10:46:10;11.35;;;5.60;;
62633;SDS011;48704;50.534;6.442;2023-02-22T10:48:39;14.48;;;6.25;;
62633;SDS011;48704;50.534;6.442;2023-02-22T10:51:08;11.20;;;6.18;;
62633;SDS011;48704;50.534;6.442;2023-02-22T10:53:34;12.93;;;6.00;;
62633;SDS011;48704;50.534;6.442;2023-02-22T10:56:06;11.68;;;5.53;;
62633;SDS011;48704;50.534;6.442;2023-02-22T10:58:56;12.95;;;6.05;;
62633;SDS011;48704;50.534;6.442;2023-02-22T11:03:56;12.93;;;6.60;;
62633;SDS011;48704;50.534;6.442;2023-02-22T11:06:28;12.07;;;6.00;;
62633;SDS011;48704;50.534;6.442;2023-02-22T11:09:08;11.52;;;6.13;;
62633;SDS011;48704;50.534;6.442;2023-02-22T11:11:35;10.98;;;5.45;;
62633;SDS011;48704;50.534;6.442;2023-02-22T11:14:02;9.93;;;4.75;;
62633;SDS011;48704;50.534;6.442;2023-02-22T11:16:31;10.55;;;5.25;;
62633;SDS011;48704;50.534;6.442;2023-02-22T11:24:28;8.52;;;4.47;;
62633;SDS011;48704;50.534;6.442;2023-02-22T11:26:57;9.13;;;4.40;;
62633;SDS011;48704;50.534;6.442;2023-02-22T11:31:56;6.97;;;4.35;;
62633;SDS011;48704;50.534;6.442;2023-02-22T11:34:27;8.70;;;3.92;;
62633;SDS011;48704;50.534;6.442;2023-02-22T11:40:03;7.38;;;3.65;;
62633;SDS011;48704;50.534;6.442;2023-02-22T11:42:38;9.77;;;3.78;;
62633;SDS011;48704;50.534;6.442;2023-02-22T11:47:45;7.65;;;3.75;;
62633;SDS011;48704;50.534;6.442;2023-02-22T11:50:16;11.02;;;4.75;;
62633;SDS011;48704;50.534;6.442;2023-02-22T11:53:12;6.90;;;4.07;;
62633;SDS011;48704;50.534;6.442;2023-02-22T11:55:48;9.57;;;4.32;;
62633;SDS011;48704;50.534;6.442;2023-02-22T11:58:39;7.83;;;4.27;;
62633;SDS011;48704;50.534;6.442;2023-02-22T12:01:54;9.15;;;4.97;;
62633;SDS011;48704;50.534;6.442;2023-02-22T12:07:16;9.68;;;4.53;;
62633;SDS011;48704;50.534;6.442;2023-02-22T12:12:58;9.38;;;4.80;;
62633;SDS011;48704;50.534;6.442;2023-02-22T12:18:20;10.07;;;5.30;;
62633;SDS011;48704;50.534;6.442;2023-02-22T12:20:57;7.20;;;4.68;;
62633;SDS011;48704;50.534;6.442;2023-02-22T12:23:32;7.50;;;5.00;;
62633;SDS011;48704;50.534;6.442;2023-02-22T12:26:10;9.40;;;5.10;;
62633;SDS011;48704;50.534;6.442;2023-02-22T12:28:41;8.05;;;4.40;;
62633;SDS011;48704;50.534;6.442;2023-02-22T12:31:17;10.63;;;5.25;;
62633;SDS011;48704;50.534;6.442;2023-02-22T12:36:35;10.65;;;5.30;;
62633;SDS011;48704;50.534;6.442;2023-02-22T12:39:11;8.15;;;5.05;;
62633;SDS011;48704;50.534;6.442;2023-02-22T12:42:09;10.88;;;5.38;;
62633;SDS011;48704;50.534;6.442;2023-02-22T12:47:22;11.73;;;5.65;;
62633;SDS011;48704;50.534;6.442;2023-02-22T12:49:58;11.48;;;5.82;;
62633;SDS011;48704;50.534;6.442;2023-02-22T12:55:09;8.32;;;4.68;;
62633;SDS011;48704;50.534;6.442;2023-02-22T13:00:24;11.90;;;5.68;;
62633;SDS011;48704;50.534;6.442;2023-02-22T13:03:01;9.32;;;5.72;;
62633;SDS011;48704;50.534;6.442;2023-02-22T13:05:41;12.40;;;6.20;;
62633;SDS011;48704;50.534;6.442;2023-02-22T13:08:30;11.40;;;5.57;;
62633;SDS011;48704;50.534;6.442;2023-02-22T13:13:45;11.20;;;5.28;;
62633;SDS011;48704;50.534;6.442;2023-02-22T13:22:07;14.85;;;6.43;;
62633;SDS011;48704;50.534;6.442;2023-02-22T13:27:19;12.57;;;6.20;;
62633;SDS011;48704;50.534;6.442;2023-02-22T13:29:51;11.20;;;5.75;;
62633;SDS011;48704;50.534;6.442;2023-02-22T13:38:16;10.98;;;6.03;;
62633;SDS011;48704;50.534;6.442;2023-02-22T13:50:09;18.92;;;7.68;;
62633;SDS011;48704;50.534;6.442;2023-02-22T13:52:46;10.70;;;6.43;;
62633;SDS011;48704;50.534;6.442;2023-02-22T13:55:15;13.30;;;6.82;;
62633;SDS011;48704;50.534;6.442;2023-02-22T13:57:45;13.27;;;6.53;;
62633;SDS011;48704;50.534;6.442;2023-02-22T14:13:09;13.88;;;7.70;;
62633;SDS011;48704;50.534;6.442;2023-02-22T14:15:35;13.88;;;7.97;;
62633;SDS011;48704;50.534;6.442;2023-02-22T14:18:24;14.60;;;8.43;;
62633;SDS011;48704;50.534;6.442;2023-02-22T14:21:04;16.10;;;8.77;;
62633;SDS011;48704;50.534;6.442;2023-02-22T14:26:18;16.92;;;9.23;;
62633;SDS011;48704;50.534;6.442;2023-02-22T14:34:08;17.50;;;9.95;;
62633;SDS011;48704;50.534;6.442;2023-02-22T14:36:43;15.13;;;9.00;;
62633;SDS011;48704;50.534;6.442;2023-02-22T14:39:26;17.55;;;10.55;;
62633;SDS011;48704;50.534;6.442;2023-02-22T14:41:59;15.52;;;9.60;;
62633;SDS011;48704;50.534;6.442;2023-02-22T14:44:31;16.05;;;8.77;;
62633;SDS011;48704;50.534;6.442;2023-02-22T14:47:02;18.88;;;10.27;;
62633;SDS011;48704;50.534;6.442;2023-02-22T14:49:29;18.60;;;10.23;;
62633;SDS011;48704;50.534;6.442;2023-02-22T14:52:04;16.38;;;9.73;;
62633;SDS011;48704;50.534;6.442;2023-02-22T14:54:43;18.33;;;9.63;;
62633;SDS011;48704;50.534;6.442;2023-02-22T14:57:40;17.52;;;9.98;;
62633;SDS011;48704;50.534;6.442;2023-02-22T15:00:16;18.95;;;8.65;;
62633;SDS011;48704;50.534;6.442;2023-02-22T15:02:54;17.50;;;8.88;;
62633;SDS011;48704;50.534;6.442;2023-02-22T15:05:23;17.77;;;8.75;;
62633;SDS011;48704;50.534;6.442;2023-02-22T15:07:53;15.60;;;8.27;;
62633;SDS011;48704;50.534;6.442;2023-02-22T15:10:25;13.68;;;8.15;;
62633;SDS011;48704;50.534;6.442;2023-02-22T15:13:03;18.48;;;8.70;;
62633;SDS011;48704;50.534;6.442;2023-02-22T15:15:37;16.65;;;8.35;;
62633;SDS011;48704;50.534;6.442;2023-02-22T15:18:12;12.82;;;7.68;;
62633;SDS011;48704;50.534;6.442;2023-02-22T15:21:06;16.27;;;8.68;;
62633;SDS011;48704;50.534;6.442;2023-02-22T15:23:39;15.48;;;8.40;;
62633;SDS011;48704;50.534;6.442;2023-02-22T15:26:07;13.85;;;7.30;;
62633;SDS011;48704;50.534;6.442;2023-02-22T15:28:41;13.02;;;7.30;;
62633;SDS011;48704;50.534;6.442;2023-02-22T15:31:13;17.30;;;8.52;;
62633;SDS011;48704;50.534;6.442;2023-02-22T15:33:42;14.73;;;7.95;;
62633;SDS011;48704;50.534;6.442;2023-02-22T15:36:11;12.13;;;7.65;;
62633;SDS011;48704;50.534;6.442;2023-02-22T15:38:38;15.00;;;8.38;;
62633;SDS011;48704;50.534;6.442;2023-02-22T15:41:05;11.15;;;7.22;;
62633;SDS011;48704;50.534;6.442;2023-02-22T15:43:32;19.00;;;8.25;;
62633;SDS011;48704;50.534;6.442;2023-02-22T15:45:58;17.90;;;8.32;;
62633;SDS011;48704;50.534;6.442;2023-02-22T15:48:25;14.27;;;8.48;;
62633;SDS011;48704;50.534;6.442;2023-02-22T15:53:29;16.58;;;9.07;;
62633;SDS011;48704;50.534;6.442;2023-02-22T15:56:01;18.73;;;9.40;;
62633;SDS011;48704;50.534;6.442;2023-02-22T15:58:31;16.70;;;9.55;;
62633;SDS011;48704;50.534;6.442;2023-02-22T16:01:02;15.77;;;9.45;;
62633;SDS011;48704;50.534;6.442;2023-02-22T16:04:14;20.90;;;10.10;;
62633;SDS011;48704;50.534;6.442;2023-02-22T16:06:31;16.70;;;9.95;;
62633;SDS011;48704;50.534;6.442;2023-02-22T16:09:07;19.48;;;10.48;;
62633;SDS011;48704;50.534;6.442;2023-02-22T16:11:38;22.58;;;10.80;;
62633;SDS011;48704;50.534;6.442;2023-02-22T16:19:48;20.00;;;10.32;;
62633;SDS011;48704;50.534;6.442;2023-02-22T16:22:25;23.80;;;11.75;;
62633;SDS011;48704;50.534;6.442;2023-02-22T16:24:51;21.13;;;11.63;;
62633;SDS011;48704;50.534;6.442;2023-02-22T16:27:18;23.55;;;11.85;;
62633;SDS011;48704;50.534;6.442;2023-02-22T16:29:59;17.40;;;10.30;;
62633;SDS011;48704;50.534;6.442;2023-02-22T16:32:44;19.35;;;10.82;;
62633;SDS011;48704;50.534;6.442;2023-02-22T16:35:11;20.95;;;11.23;;
62633;SDS011;48704;50.534;6.442;2023-02-22T16:37:55;19.17;;;11.57;;
62633;SDS011;48704;50.534;6.442;2023-02-22T16:43:02;28.02;;;12.07;;
62633;SDS011;48704;50.534;6.442;2023-02-22T16:45:33;16.48;;;10.52;;
62633;SDS011;48704;50.534;6.442;2023-02-22T16:47:59;24.13;;;12.38;;
62633;SDS011;48704;50.534;6.442;2023-02-22T16:50:28;23.65;;;12.15;;
62633;SDS011;48704;50.534;6.442;2023-02-22T16:52:54;22.17;;;12.07;;
62633;SDS011;48704;50.534;6.442;2023-02-22T16:55:22;21.98;;;12.02;;
62633;SDS011;48704;50.534;6.442;2023-02-22T16:57:48;23.83;;;12.23;;
62633;SDS011;48704;50.534;6.442;2023-02-22T17:00:16;21.60;;;12.57;;
62633;SDS011;48704;50.534;6.442;2023-02-22T17:02:45;21.77;;;11.65;;
62633;SDS011;48704;50.534;6.442;2023-02-22T17:05:12;22.88;;;12.55;;
62633;SDS011;48704;50.534;6.442;2023-02-22T17:07:39;19.65;;;11.80;;
62633;SDS011;48704;50.534;6.442;2023-02-22T17:10:04;24.35;;;11.55;;
62633;SDS011;48704;50.534;6.442;2023-02-22T17:12:31;24.00;;;11.95;;
62633;SDS011;48704;50.534;6.442;2023-02-22T17:14:56;22.15;;;12.15;;
62633;SDS011;48704;50.534;6.442;2023-02-22T17:17:21;26.50;;;12.68;;
62633;SDS011;48704;50.534;6.442;2023-02-22T17:19:47;21.83;;;12.73;;
62633;SDS011;48704;50.534;6.442;2023-02-22T17:22:16;27.63;;;15.27;;
62633;SDS011;48704;50.534;6.442;2023-02-22T17:24:43;28.23;;;13.50;;